General Aviation Weather

Text Reports

Enter one or more of the following location identifiers separated by a space:

Zip Code, Four-Character ICAO or Three-Character IATA airport codes.

METAR - Aviation Routine Weather Report
KAEJ - Buena Vista, Colorado
Updated at 3:35 AM GMT on September 02, 2014 (9:35 PM MDT):
METAR KAEJ 020335Z AUTO 30006KT 10SM CLR 15/M02 A3028 RMK AO2 T01501021
TAF - Terminal Area Forecast
KAEJ - Buena Vista, Colorado
Updated at 3:35 AM GMT on September 02, 2014 (9:35 PM MDT):
No TAF is currently available for this location.
Decoded:
No decoded TAF is available.
PIREP - Pilot Weather Report
KAEJ - Buena Vista, Colorado
Updated at 3:35 AM GMT on September 02, 2014 (9:35 PM MDT):
No PIREP is currently available for this location.
AIRMET - Airmens Meteorological Information
KAEJ - Buena Vista, Colorado
Updated at 3:35 AM GMT on September 02, 2014 (9:35 PM MDT):
No AIRMET is currently available for this location.
SIGMET - Significant Meteorological Information
KAEJ - Buena Vista, Colorado
Updated at 3:35 AM GMT on September 02, 2014 (9:35 PM MDT):
No SIGMET is currently available for this location.
NOTAM - Notice to Airmen
KAEJ - Buena Vista, Colorado
Updated at 3:35 AM GMT on September 02, 2014 (9:35 PM MDT):
No NOTAM is currently available for this location.
Forecast Area
KAEJ - Buena Vista, Colorado
Updated at 3:35 AM GMT on September 02, 2014 (9:35 PM MDT):
No NOTAM is currently available for this location.
Aviation Weather Maps